N850CX VNLK-VNRT
Flight info
| Callsign | N850CX |
|---|---|
| Flight time | 0h 11m |
| Altitude | 12500 |
| Route | DCT |
| Aircraft | SR22/L-SDGRY/S |
Departure
| Time | 2026-01-21 23:25 |
|---|---|
| Airport | Tenzing-Hillary Airport (VNLK) |
Arrival
| Time | 2026-01-21 23:36 |
|---|---|
| Airport | Rumjatar Airport (VNRT) |
| Time | Latitude | Longitude | Altitude | Speed | Heading |
|---|---|---|---|---|---|
| 2026-01-21 23:20 | 27.68752 | 86.73157 | 9447 ft | 0 kts | 278° |
| 2026-01-21 23:21 | 27.68747 | 86.73144 | 9448 ft | 0 kts | 231° |
| 2026-01-21 23:21 | 27.68741 | 86.73152 | 9440 ft | 1 kts | 193° |
| 2026-01-21 23:22 | 27.68747 | 86.73157 | 9447 ft | 0 kts | 177° |
| 2026-01-21 23:22 | 27.68729 | 86.73176 | 9448 ft | 4 kts | 96° |
| 2026-01-21 23:23 | 27.68784 | 86.73160 | 9450 ft | 4 kts | 297° |
| 2026-01-21 23:23 | 27.67923 | 86.71689 | 9431 ft | 119 kts | 240° |
| 2026-01-21 23:24 | 27.66421 | 86.70775 | 9995 ft | 130 kts | 195° |
| 2026-01-21 23:24 | 27.65513 | 86.70562 | 10127 ft | 141 kts | 191° |
| 2026-01-21 23:25 | 27.63564 | 86.70279 | 10800 ft | 145 kts | 186° |
| 2026-01-21 23:25 | 27.61679 | 86.69614 | 11584 ft | 142 kts | 205° |
| 2026-01-21 23:26 | 27.59511 | 86.68783 | 11683 ft | 176 kts | 201° |
| 2026-01-21 23:26 | 27.57197 | 86.67715 | 12011 ft | 183 kts | 205° |
| 2026-01-21 23:27 | 27.54842 | 86.66603 | 12319 ft | 185 kts | 204° |
| 2026-01-21 23:27 | 27.51148 | 86.64873 | 12459 ft | 198 kts | 204° |
| 2026-01-21 23:28 | 27.49882 | 86.64280 | 12462 ft | 200 kts | 204° |
| 2026-01-21 23:28 | 27.45951 | 86.62436 | 12456 ft | 205 kts | 205° |
| 2026-01-21 23:29 | 27.44639 | 86.61824 | 12460 ft | 203 kts | 205° |
| 2026-01-21 23:29 | 27.40780 | 86.60020 | 12460 ft | 193 kts | 208° |
| 2026-01-21 23:30 | 27.39543 | 86.59440 | 12459 ft | 192 kts | 208° |
| 2026-01-21 23:30 | 27.37011 | 86.58255 | 12184 ft | 199 kts | 208° |
| 2026-01-21 23:31 | 27.34587 | 86.57113 | 11263 ft | 184 kts | 207° |
| 2026-01-21 23:31 | 27.30974 | 86.56214 | 9805 ft | 190 kts | 156° |
| 2026-01-21 23:32 | 27.30048 | 86.57246 | 9281 ft | 191 kts | 117° |
| 2026-01-21 23:32 | 27.30618 | 86.59598 | 8954 ft | 145 kts | 21° |
| 2026-01-21 23:33 | 27.31783 | 86.58780 | 8809 ft | 112 kts | 271° |
| 2026-01-21 23:33 | 27.31312 | 86.56901 | 7752 ft | 155 kts | 210° |
| 2026-01-21 23:34 | 27.29016 | 86.57197 | 6758 ft | 138 kts | 175° |
| 2026-01-21 23:34 | 27.27224 | 86.56384 | 5575 ft | 113 kts | 259° |
| 2026-01-21 23:35 | 27.27564 | 86.55686 | 5140 ft | 112 kts | 330° |
| 2026-01-21 23:35 | 27.28241 | 86.55381 | 4881 ft | 101 kts | 357° |
| 2026-01-21 23:36 | 27.30206 | 86.55119 | 4490 ft | 16 kts | 357° |
| 2026-01-21 23:36 | 27.30345 | 86.55078 | 4521 ft | 5 kts | 256° |